createdAt,value
2023-03-31T00:01:51.941Z,6.27
2023-03-31T00:04:23.255Z,5.80
2023-03-31T00:06:53.207Z,4.60
2023-03-31T00:09:21.581Z,4.17
2023-03-31T00:11:49.200Z,4.80
2023-03-31T00:14:17.236Z,5.43
2023-03-31T00:16:44.403Z,6.17
2023-03-31T00:19:17.256Z,5.47
2023-03-31T00:21:44.358Z,10.63
2023-03-31T00:24:11.876Z,8.43
2023-03-31T00:26:37.970Z,5.10
2023-03-31T00:29:06.471Z,4.93
2023-03-31T00:31:33.219Z,5.57
2023-03-31T00:33:59.753Z,5.27
2023-03-31T00:36:26.696Z,6.13
2023-03-31T00:38:59.139Z,7.10
2023-03-31T00:41:29.820Z,6.10
2023-03-31T00:44:05.772Z,8.13
2023-03-31T00:46:45.183Z,5.07
2023-03-31T00:49:26.796Z,6.57
2023-03-31T00:51:56.365Z,6.10
2023-03-31T00:54:25.930Z,5.97
2023-03-31T00:56:54.764Z,4.40
2023-03-31T00:59:27.193Z,5.47
2023-03-31T01:01:54.678Z,5.60
2023-03-31T01:04:21.893Z,6.53
2023-03-31T01:07:00.316Z,4.13
2023-03-31T01:09:30.067Z,6.27
2023-03-31T01:11:56.357Z,5.07
2023-03-31T01:14:22.714Z,7.77
2023-03-31T01:16:49.022Z,6.27
2023-03-31T01:19:45.442Z,5.57
2023-03-31T01:22:50.524Z,6.17
2023-03-31T01:25:28.810Z,7.47
2023-03-31T01:28:24.708Z,4.80
2023-03-31T01:31:38.855Z,5.43
2023-03-31T01:34:36.601Z,4.93
2023-03-31T01:37:31.967Z,5.70
2023-03-31T01:40:10.205Z,8.23
2023-03-31T01:42:38.970Z,4.60
2023-03-31T01:45:20.159Z,5.87
2023-03-31T01:47:57.404Z,4.87
2023-03-31T01:50:29.806Z,5.37
2023-03-31T01:53:54.075Z,4.53
2023-03-31T01:56:33.254Z,5.20
2023-03-31T01:59:07.782Z,4.57
2023-03-31T02:01:55.611Z,6.30
2023-03-31T02:04:28.689Z,7.10
2023-03-31T02:07:00.992Z,4.73
2023-03-31T02:09:33.757Z,6.27
2023-03-31T02:12:06.173Z,5.37
2023-03-31T02:14:36.319Z,5.23
2023-03-31T02:17:04.745Z,4.17
2023-03-31T02:19:35.393Z,4.97
2023-03-31T02:22:04.364Z,4.53
2023-03-31T02:24:34.407Z,4.17
2023-03-31T02:27:04.488Z,4.23
2023-03-31T02:29:31.836Z,3.63
2023-03-31T02:32:07.952Z,4.83
2023-03-31T02:34:35.811Z,4.07
2023-03-31T02:37:02.046Z,4.30
2023-03-31T02:39:33.466Z,4.73
2023-03-31T02:42:06.212Z,4.10
2023-03-31T02:44:37.622Z,8.07
2023-03-31T02:47:06.953Z,4.37
2023-03-31T02:49:35.596Z,5.97
2023-03-31T02:52:16.974Z,3.93
2023-03-31T02:54:46.699Z,5.83
2023-03-31T02:57:37.804Z,11.03
2023-03-31T03:00:32.654Z,4.97
2023-03-31T03:03:20.225Z,7.40
2023-03-31T03:06:05.494Z,4.50
2023-03-31T03:09:08.348Z,3.57
2023-03-31T03:11:51.953Z,3.60
2023-03-31T03:14:42.867Z,4.97
2023-03-31T03:17:20.412Z,3.47
2023-03-31T03:19:52.663Z,3.50
2023-03-31T03:22:19.723Z,4.53
2023-03-31T03:24:46.045Z,7.07
2023-03-31T03:27:12.685Z,4.03
2023-03-31T03:29:38.709Z,4.73
2023-03-31T03:32:05.171Z,3.83
2023-03-31T03:34:31.236Z,8.30
2023-03-31T03:36:57.666Z,5.83
2023-03-31T03:39:23.720Z,3.33
2023-03-31T03:41:50.097Z,3.27
2023-03-31T03:44:16.288Z,4.73
2023-03-31T03:46:42.699Z,6.20
2023-03-31T03:49:09.032Z,5.63
2023-03-31T03:51:35.401Z,5.33
2023-03-31T03:54:01.511Z,6.10
2023-03-31T03:56:27.938Z,4.03
2023-03-31T03:58:54.027Z,4.43
2023-03-31T04:01:20.832Z,4.00
2023-03-31T04:03:47.069Z,4.97
2023-03-31T04:06:13.584Z,3.67
2023-03-31T04:08:40.127Z,3.90
2023-03-31T04:11:16.630Z,4.80
2023-03-31T04:13:45.300Z,6.60
2023-03-31T04:16:11.806Z,5.60
2023-03-31T04:18:41.981Z,4.50
2023-03-31T04:21:11.556Z,8.47
2023-03-31T04:23:47.861Z,6.23
2023-03-31T04:26:17.795Z,6.30
2023-03-31T04:28:49.870Z,9.90
2023-03-31T04:31:24.545Z,7.43
2023-03-31T04:33:54.500Z,6.33
2023-03-31T04:36:21.563Z,5.67
2023-03-31T04:38:55.604Z,8.03
2023-03-31T04:41:23.345Z,5.90
2023-03-31T04:43:50.042Z,7.30
2023-03-31T04:46:16.454Z,7.67
2023-03-31T04:48:42.672Z,7.93
2023-03-31T04:51:09.931Z,8.67
2023-03-31T04:53:36.287Z,7.03
2023-03-31T04:56:03.471Z,5.70
2023-03-31T04:58:29.868Z,4.03
2023-03-31T05:00:56.315Z,5.33
2023-03-31T05:03:22.469Z,4.10
2023-03-31T05:05:49.003Z,5.77
2023-03-31T05:08:15.274Z,3.77
2023-03-31T05:10:41.614Z,5.07
2023-03-31T05:13:10.754Z,6.33
2023-03-31T05:15:38.757Z,7.97
2023-03-31T05:18:05.794Z,6.60
2023-03-31T05:20:32.304Z,7.00
2023-03-31T05:22:59.012Z,9.37
2023-03-31T05:25:28.751Z,8.40
2023-03-31T05:27:56.001Z,8.83
2023-03-31T05:30:25.489Z,9.23
2023-03-31T05:32:52.226Z,7.90
2023-03-31T05:35:19.026Z,7.43
2023-03-31T05:37:45.404Z,8.20
2023-03-31T05:40:12.430Z,7.73
2023-03-31T05:42:38.592Z,8.43
2023-03-31T05:45:08.573Z,7.83
2023-03-31T05:47:35.992Z,6.57
2023-03-31T05:50:06.777Z,9.03
2023-03-31T05:52:33.161Z,6.70
2023-03-31T05:54:59.684Z,6.23
2023-03-31T05:57:25.934Z,6.60
2023-03-31T05:59:52.895Z,7.17
2023-03-31T06:02:19.070Z,9.77
2023-03-31T06:04:45.916Z,7.97
2023-03-31T06:07:12.984Z,6.57
2023-03-31T06:09:39.925Z,5.93
2023-03-31T06:12:07.760Z,7.30
2023-03-31T06:14:34.197Z,7.53
2023-03-31T06:17:00.867Z,9.60
2023-03-31T06:19:27.436Z,8.10
2023-03-31T06:21:53.828Z,4.70
2023-03-31T06:24:21.298Z,9.53
2023-03-31T06:26:47.459Z,7.23
2023-03-31T06:29:14.040Z,8.67
2023-03-31T06:31:40.792Z,6.37
2023-03-31T06:34:07.909Z,8.47
2023-03-31T06:36:34.231Z,6.50
2023-03-31T06:39:01.339Z,7.27
2023-03-31T06:41:27.833Z,8.13
2023-03-31T06:43:54.576Z,5.40
2023-03-31T06:46:20.935Z,5.90
2023-03-31T06:48:47.757Z,7.27
2023-03-31T06:51:14.482Z,7.00
2023-03-31T06:53:41.014Z,5.47
2023-03-31T06:56:07.479Z,6.20
2023-03-31T06:58:34.349Z,7.17
2023-03-31T07:01:05.783Z,6.93
2023-03-31T07:03:33.044Z,5.03
2023-03-31T07:05:59.292Z,5.90
2023-03-31T07:08:25.941Z,5.40
2023-03-31T07:10:58.097Z,6.83
2023-03-31T07:13:25.851Z,7.40
2023-03-31T07:15:52.759Z,6.57
2023-03-31T07:18:19.930Z,7.00
2023-03-31T07:20:52.397Z,8.50
2023-03-31T07:23:20.078Z,5.43
2023-03-31T07:25:47.363Z,5.40
2023-03-31T07:28:14.267Z,6.37
2023-03-31T07:30:40.685Z,5.60
2023-03-31T07:33:07.759Z,5.53
2023-03-31T07:35:38.224Z,6.93
2023-03-31T07:38:04.761Z,7.27
2023-03-31T07:40:30.916Z,7.00
2023-03-31T07:42:57.624Z,6.13
2023-03-31T07:45:25.638Z,4.63
2023-03-31T07:47:52.617Z,6.93
2023-03-31T07:50:20.553Z,6.60
2023-03-31T07:52:49.379Z,5.10
2023-03-31T07:55:15.967Z,6.50
2023-03-31T07:57:42.935Z,7.03
2023-03-31T08:00:11.483Z,4.73
2023-03-31T08:02:42.257Z,6.27
2023-03-31T08:05:12.459Z,8.07
2023-03-31T08:07:41.375Z,5.73
2023-03-31T08:10:10.856Z,5.43
2023-03-31T08:12:37.903Z,4.93
2023-03-31T08:15:05.204Z,4.80
2023-03-31T08:17:31.733Z,10.83
2023-03-31T08:20:01.664Z,5.60
2023-03-31T08:22:30.341Z,3.87
2023-03-31T08:24:56.655Z,7.83
2023-03-31T08:27:23.594Z,6.53
2023-03-31T08:29:49.779Z,9.00
2023-03-31T08:32:16.332Z,5.90
2023-03-31T08:34:42.483Z,8.20
2023-03-31T08:37:09.687Z,6.90
2023-03-31T08:39:36.563Z,9.63
2023-03-31T08:42:38.443Z,6.53
2023-03-31T08:45:21.325Z,7.17
2023-03-31T08:47:51.590Z,7.87
2023-03-31T08:50:25.194Z,6.67
2023-03-31T08:53:01.512Z,7.77
2023-03-31T08:55:36.409Z,6.57
2023-03-31T08:58:14.384Z,10.30
2023-03-31T09:00:55.253Z,6.67
2023-03-31T09:03:35.203Z,7.60
2023-03-31T09:06:07.622Z,6.27
2023-03-31T09:08:40.700Z,5.67
2023-03-31T09:11:31.205Z,7.00
2023-03-31T09:14:17.174Z,8.27
2023-03-31T09:16:50.566Z,7.03
2023-03-31T09:19:28.076Z,7.20
2023-03-31T09:21:55.808Z,5.87
2023-03-31T09:24:28.026Z,6.53
2023-03-31T09:26:59.892Z,5.43
2023-03-31T09:29:48.437Z,5.33
2023-03-31T09:32:22.101Z,7.30
2023-03-31T09:34:56.806Z,6.50
2023-03-31T09:37:27.766Z,7.30
2023-03-31T09:39:54.410Z,8.17
2023-03-31T09:42:20.858Z,4.60
2023-03-31T09:44:51.143Z,4.90
2023-03-31T09:47:27.329Z,11.93
2023-03-31T09:49:54.793Z,6.73
2023-03-31T09:52:41.144Z,7.70
2023-03-31T09:55:42.467Z,10.60
2023-03-31T09:58:16.133Z,6.60
2023-03-31T10:00:56.620Z,7.17
2023-03-31T10:03:24.329Z,6.47
2023-03-31T10:05:53.847Z,4.97
2023-03-31T10:08:25.557Z,5.43
2023-03-31T10:11:01.016Z,7.97
2023-03-31T10:13:34.925Z,6.50
2023-03-31T10:16:04.361Z,6.63
2023-03-31T10:18:34.655Z,7.73
2023-03-31T10:21:03.819Z,8.93
2023-03-31T10:23:32.326Z,6.50
2023-03-31T10:26:00.374Z,8.07
2023-03-31T10:28:31.612Z,9.50
2023-03-31T10:31:03.512Z,7.30
2023-03-31T10:33:34.008Z,7.53
2023-03-31T10:36:20.197Z,12.23
2023-03-31T10:38:48.375Z,6.07
2023-03-31T10:41:21.259Z,9.47
2023-03-31T10:43:50.850Z,5.03
2023-03-31T10:46:17.409Z,7.87
2023-03-31T10:48:44.813Z,6.47
2023-03-31T10:51:19.216Z,9.90
2023-03-31T10:53:50.753Z,7.47
2023-03-31T10:56:38.690Z,7.23
2023-03-31T10:59:09.607Z,4.20
2023-03-31T11:02:00.575Z,6.33
2023-03-31T11:04:27.171Z,4.63
2023-03-31T11:07:21.539Z,6.93
2023-03-31T11:10:09.622Z,7.03
2023-03-31T11:12:46.066Z,5.87
2023-03-31T11:15:15.775Z,5.07
2023-03-31T11:18:01.202Z,6.03
2023-03-31T11:20:39.427Z,4.87
2023-03-31T11:23:25.791Z,5.03
2023-03-31T11:25:57.851Z,4.37
2023-03-31T11:28:44.822Z,6.27
2023-03-31T11:31:27.927Z,8.97
2023-03-31T11:34:03.677Z,7.97
2023-03-31T11:37:04.366Z,6.40
2023-03-31T11:39:48.921Z,7.03
2023-03-31T11:42:27.486Z,5.90
2023-03-31T11:45:12.864Z,5.73
2023-03-31T11:47:43.854Z,6.47
2023-03-31T11:50:14.223Z,7.23
2023-03-31T11:52:56.314Z,5.03
2023-03-31T11:55:26.733Z,7.07
2023-03-31T11:57:55.967Z,4.10
2023-03-31T12:00:46.276Z,5.90
2023-03-31T12:03:43.451Z,4.70
2023-03-31T12:06:18.359Z,5.23
2023-03-31T12:09:07.009Z,7.70
2023-03-31T12:11:55.138Z,7.47
2023-03-31T12:14:21.709Z,9.33
2023-03-31T12:16:53.026Z,10.57
2023-03-31T12:19:27.812Z,6.40
2023-03-31T12:22:18.281Z,10.20
2023-03-31T12:24:46.335Z,7.43
2023-03-31T12:27:21.329Z,6.87
2023-03-31T12:29:57.580Z,6.17
2023-03-31T12:32:29.710Z,5.73
2023-03-31T12:35:19.898Z,7.10
2023-03-31T12:38:23.724Z,8.60
2023-03-31T12:41:01.902Z,5.47
2023-03-31T12:43:47.684Z,6.33
2023-03-31T12:46:36.162Z,7.13
2023-03-31T12:49:24.491Z,8.23
2023-03-31T12:52:06.357Z,5.03
2023-03-31T12:54:53.422Z,10.73
2023-03-31T12:57:24.123Z,7.40
2023-03-31T13:00:12.410Z,6.23
2023-03-31T13:02:40.764Z,8.50
2023-03-31T13:05:38.345Z,6.33
2023-03-31T13:08:06.610Z,6.77
2023-03-31T13:10:52.706Z,4.93
2023-03-31T13:13:19.813Z,5.00
2023-03-31T13:15:55.724Z,14.30
2023-03-31T13:18:22.932Z,21.90
2023-03-31T13:21:07.106Z,47.00
2023-03-31T13:23:42.817Z,51.07
2023-03-31T13:26:32.087Z,14.90
2023-03-31T13:29:13.591Z,7.87
2023-03-31T13:32:02.093Z,5.53
2023-03-31T13:34:41.046Z,7.97
2023-03-31T13:37:27.785Z,6.47
2023-03-31T13:40:07.240Z,5.60
2023-03-31T13:42:51.043Z,16.47
2023-03-31T13:45:38.883Z,5.53
2023-03-31T13:48:34.802Z,7.97
2023-03-31T13:51:46.569Z,4.10
2023-03-31T13:54:53.328Z,6.77
2023-03-31T13:57:37.968Z,6.47
2023-03-31T14:00:14.484Z,5.30
2023-03-31T14:03:13.397Z,6.23
2023-03-31T14:05:44.761Z,7.60
2023-03-31T14:08:18.171Z,34.63
2023-03-31T14:10:45.015Z,16.17
2023-03-31T14:13:19.698Z,10.67
2023-03-31T14:15:50.616Z,10.70
2023-03-31T14:18:25.706Z,11.47
2023-03-31T14:21:07.450Z,6.27
2023-03-31T14:23:55.955Z,7.90
2023-03-31T14:26:49.701Z,7.13
2023-03-31T14:29:40.331Z,8.70
2023-03-31T14:32:21.007Z,13.27
2023-03-31T14:35:14.655Z,17.67
2023-03-31T14:37:42.406Z,6.23
2023-03-31T14:40:15.929Z,11.23
2023-03-31T14:42:49.423Z,7.03
2023-03-31T14:45:30.667Z,7.57
2023-03-31T14:48:02.134Z,6.40
2023-03-31T14:50:33.422Z,9.10
2023-03-31T14:53:01.580Z,7.17
2023-03-31T14:55:44.120Z,5.23
2023-03-31T14:58:26.249Z,7.63
2023-03-31T15:00:53.483Z,17.83
2023-03-31T15:03:20.247Z,9.07
2023-03-31T15:05:48.963Z,9.37
2023-03-31T15:08:22.188Z,11.13
2023-03-31T15:11:02.317Z,7.60
2023-03-31T15:13:56.506Z,12.13
2023-03-31T15:16:28.042Z,9.43
2023-03-31T15:18:55.483Z,18.67
2023-03-31T15:21:24.802Z,17.57
2023-03-31T15:23:58.278Z,15.10
2023-03-31T15:26:50.720Z,13.53
2023-03-31T15:29:37.895Z,17.60
2023-03-31T15:32:12.914Z,20.13
2023-03-31T15:34:42.625Z,23.90
2023-03-31T15:37:09.837Z,18.73
2023-03-31T15:39:37.673Z,17.00
2023-03-31T15:42:06.425Z,17.80
2023-03-31T15:44:44.479Z,18.80
2023-03-31T15:47:21.091Z,25.63
2023-03-31T15:49:54.130Z,18.67
2023-03-31T15:52:24.315Z,17.83
2023-03-31T15:54:51.142Z,9.97
2023-03-31T15:57:19.076Z,11.00
2023-03-31T15:59:55.229Z,11.73
2023-03-31T16:02:37.682Z,7.80
2023-03-31T16:07:51.281Z,10.43
2023-03-31T16:10:22.450Z,9.27
2023-03-31T16:13:02.580Z,10.97
2023-03-31T16:13:34.753Z,10.10
2023-03-31T16:15:41.855Z,10.23
2023-03-31T16:18:23.759Z,9.47
2023-03-31T16:20:55.364Z,9.37
2023-03-31T16:23:25.562Z,10.33
2023-03-31T16:25:52.657Z,8.57
2023-03-31T16:28:23.750Z,7.90
2023-03-31T16:30:50.922Z,7.63
2023-03-31T17:32:05.836Z,9.03
2023-03-31T17:34:32.828Z,9.27
2023-03-31T17:36:59.392Z,7.90
2023-03-31T17:39:26.960Z,9.80
2023-03-31T17:41:53.419Z,12.07
2023-03-31T17:44:20.223Z,11.93
2023-03-31T17:46:47.633Z,9.00
2023-03-31T17:49:15.190Z,8.27
2023-03-31T17:51:42.994Z,8.30
2023-03-31T17:54:10.731Z,7.90
2023-03-31T17:56:37.441Z,9.60
2023-03-31T17:59:05.086Z,8.63
2023-03-31T18:01:31.906Z,9.53
2023-03-31T18:03:58.707Z,8.57
2023-03-31T18:06:27.458Z,11.33
2023-03-31T18:08:55.519Z,11.40
2023-03-31T18:11:22.554Z,10.07
2023-03-31T18:13:50.432Z,13.37
2023-03-31T18:16:17.715Z,14.03
2023-03-31T18:18:44.887Z,14.97
2023-03-31T18:21:12.796Z,20.00
2023-03-31T18:23:42.616Z,18.83
2023-03-31T18:26:12.374Z,21.70
2023-03-31T18:28:40.049Z,15.73
2023-03-31T18:31:07.613Z,19.07
2023-03-31T18:33:34.995Z,20.13
2023-03-31T18:36:01.711Z,14.70
2023-03-31T18:38:28.269Z,16.00
2023-03-31T18:40:54.731Z,13.50
2023-03-31T18:43:23.083Z,15.77
2023-03-31T18:45:51.581Z,17.07
2023-03-31T18:48:18.534Z,13.03
2023-03-31T18:50:45.467Z,14.77
2023-03-31T18:53:14.531Z,13.70
2023-03-31T18:55:41.805Z,11.97
2023-03-31T18:58:08.977Z,10.57
2023-03-31T19:00:35.616Z,13.20
2023-03-31T19:03:03.179Z,13.37
2023-03-31T19:05:30.285Z,11.17
2023-03-31T19:07:58.607Z,13.33
2023-03-31T19:10:25.349Z,11.40
2023-03-31T19:12:52.540Z,11.63
2023-03-31T19:15:19.708Z,11.07
2023-03-31T19:17:46.820Z,13.43
2023-03-31T19:20:17.293Z,10.80
2023-03-31T19:22:46.319Z,14.03
2023-03-31T19:25:18.206Z,17.17
2023-03-31T19:27:46.443Z,12.47
2023-03-31T19:30:17.781Z,14.97
2023-03-31T19:32:47.724Z,26.30
2023-03-31T19:35:18.533Z,44.57
2023-03-31T19:37:46.950Z,54.07
2023-03-31T19:40:13.936Z,47.77
2023-03-31T19:42:41.792Z,40.57
2023-03-31T19:45:08.882Z,17.10
2023-03-31T19:47:35.877Z,11.90
2023-03-31T19:50:02.616Z,12.07
2023-03-31T19:52:29.643Z,10.43
2023-03-31T19:54:56.277Z,12.40
2023-03-31T19:57:23.337Z,14.47
2023-03-31T19:59:50.082Z,13.23
2023-03-31T20:02:19.143Z,13.70
2023-03-31T20:04:46.504Z,11.00
2023-03-31T20:07:13.531Z,10.63
2023-03-31T20:09:40.118Z,11.67
2023-03-31T20:12:06.997Z,9.37
2023-03-31T20:14:33.516Z,7.37
2023-03-31T20:17:01.740Z,8.07
2023-03-31T20:19:28.973Z,7.63
2023-03-31T20:21:57.232Z,7.03
2023-03-31T20:24:24.274Z,9.07
2023-03-31T20:26:51.288Z,8.50
2023-03-31T20:29:17.989Z,9.60
2023-03-31T20:31:45.323Z,6.00
2023-03-31T20:34:16.417Z,7.10
2023-03-31T20:36:45.730Z,8.77
2023-03-31T20:39:13.359Z,8.47
2023-03-31T20:41:40.334Z,7.73
2023-03-31T20:44:09.980Z,6.83
2023-03-31T20:46:38.399Z,6.43
2023-03-31T20:49:06.451Z,10.60
2023-03-31T20:51:36.810Z,8.87
2023-03-31T20:54:03.789Z,6.60
2023-03-31T20:56:36.860Z,5.97
2023-03-31T20:59:04.835Z,5.93
2023-03-31T21:01:33.528Z,6.77
2023-03-31T21:04:01.740Z,7.13
2023-03-31T21:06:31.966Z,8.23
2023-03-31T21:08:58.394Z,6.17
2023-03-31T21:11:25.212Z,8.40
2023-03-31T21:13:52.452Z,7.73
2023-03-31T21:16:20.278Z,5.90
2023-03-31T21:18:47.517Z,7.80
2023-03-31T21:21:18.027Z,7.07
2023-03-31T21:23:45.882Z,6.90
2023-03-31T21:26:16.276Z,10.07
2023-03-31T21:28:44.136Z,8.13
2023-03-31T21:31:21.730Z,7.17
2023-03-31T21:33:48.155Z,8.00
2023-03-31T21:36:17.837Z,6.63
2023-03-31T21:38:44.959Z,8.00
2023-03-31T21:41:14.516Z,7.77
2023-03-31T21:43:41.366Z,8.13
2023-03-31T21:46:08.963Z,5.03
2023-03-31T21:48:35.474Z,7.37
2023-03-31T21:51:02.284Z,7.77
2023-03-31T21:53:30.869Z,5.67
2023-03-31T21:55:58.096Z,5.67
2023-03-31T21:58:27.880Z,5.37
2023-03-31T22:00:56.731Z,6.93
2023-03-31T22:03:27.578Z,5.50
2023-03-31T22:05:58.748Z,6.37
2023-03-31T22:08:26.380Z,6.23
2023-03-31T22:10:53.646Z,5.37
2023-03-31T22:13:22.654Z,8.53
2023-03-31T22:15:49.290Z,7.10
2023-03-31T22:18:16.324Z,9.90
2023-03-31T22:20:43.985Z,6.03
2023-03-31T22:23:10.958Z,6.93
2023-03-31T22:25:37.398Z,5.93
2023-03-31T22:28:06.081Z,5.87
2023-03-31T22:30:34.085Z,8.23
2023-03-31T22:33:00.386Z,6.47
2023-03-31T22:35:27.714Z,5.03
2023-03-31T22:37:53.903Z,8.80
2023-03-31T22:40:20.264Z,7.13
2023-03-31T22:42:46.385Z,6.73
2023-03-31T22:45:12.876Z,6.60
2023-03-31T22:47:41.404Z,6.80
2023-03-31T22:50:09.229Z,8.20
2023-03-31T22:52:35.631Z,7.07
2023-03-31T22:55:02.323Z,8.23
2023-03-31T22:57:28.552Z,8.17
2023-03-31T22:59:54.935Z,6.63
2023-03-31T23:02:21.402Z,9.20
2023-03-31T23:04:47.857Z,8.60
2023-03-31T23:07:15.162Z,7.93
2023-03-31T23:09:41.578Z,9.67
2023-03-31T23:12:07.681Z,13.63
2023-03-31T23:14:34.088Z,10.43
2023-03-31T23:17:00.305Z,8.90
2023-03-31T23:19:26.878Z,11.10
2023-03-31T23:21:52.982Z,8.83
2023-03-31T23:24:20.532Z,9.67
2023-03-31T23:26:46.653Z,12.07
2023-03-31T23:29:13.016Z,12.07
2023-03-31T23:31:39.232Z,7.37
2023-03-31T23:34:06.509Z,9.40
2023-03-31T23:36:32.625Z,11.60
2023-03-31T23:38:59.090Z,10.47
2023-03-31T23:41:25.494Z,9.67
2023-03-31T23:43:52.878Z,11.20
2023-03-31T23:46:19.392Z,9.93
2023-03-31T23:48:45.771Z,9.77
2023-03-31T23:51:12.521Z,9.77
2023-03-31T23:53:39.251Z,7.57
2023-03-31T23:56:09.167Z,8.93
2023-03-31T23:58:36.066Z,10.20
